createdAt,value
2022-08-04T00:00:46.490Z,12.38
2022-08-04T00:03:21.180Z,13.00
2022-08-04T00:05:58.566Z,12.45
2022-08-04T00:08:35.184Z,12.52
2022-08-04T00:11:03.646Z,12.38
2022-08-04T00:13:33.356Z,12.32
2022-08-04T00:16:05.495Z,12.88
2022-08-04T00:21:06.850Z,12.02
2022-08-04T00:24:11.103Z,12.67
2022-08-04T00:26:23.602Z,12.55
2022-08-04T00:28:54.178Z,12.85
2022-08-04T00:31:54.158Z,12.00
2022-08-04T00:34:14.185Z,12.07
2022-08-04T00:36:42.347Z,12.40
2022-08-04T00:39:13.283Z,12.32
2022-08-04T00:41:56.643Z,11.68
2022-08-04T00:44:32.529Z,12.02
2022-08-04T00:47:09.530Z,12.45
2022-08-04T00:50:05.875Z,13.02
2022-08-04T00:53:07.220Z,13.00
2022-08-04T00:55:49.200Z,12.07
2022-08-04T00:58:24.459Z,12.27
2022-08-04T01:01:02.108Z,11.82
2022-08-04T01:03:51.177Z,11.35
2022-08-04T01:06:36.035Z,12.80
2022-08-04T01:09:12.523Z,12.23
2022-08-04T01:12:06.749Z,13.27
2022-08-04T01:14:49.109Z,12.30
2022-08-04T01:20:01.334Z,11.65
2022-08-04T01:23:07.223Z,12.70
2022-08-04T01:25:55.510Z,12.65
2022-08-04T01:28:42.848Z,12.73
2022-08-04T01:31:16.958Z,12.88
2022-08-04T01:34:04.165Z,12.43
2022-08-04T01:36:35.120Z,12.50
2022-08-04T01:39:24.895Z,12.75
2022-08-04T01:41:58.033Z,13.05
2022-08-04T01:44:28.820Z,12.27
2022-08-04T01:46:58.206Z,12.82
2022-08-04T01:49:26.158Z,12.70
2022-08-04T01:51:55.530Z,12.25
2022-08-04T01:54:24.308Z,12.88
2022-08-04T01:56:52.249Z,13.13
2022-08-04T01:59:21.027Z,13.10
2022-08-04T02:01:49.057Z,11.90
2022-08-04T02:04:23.469Z,12.05
2022-08-04T02:07:00.233Z,12.77
2022-08-04T02:09:34.013Z,13.18
2022-08-04T02:12:28.890Z,12.45
2022-08-04T02:14:58.881Z,12.68
2022-08-04T02:17:31.131Z,12.52
2022-08-04T02:20:08.128Z,12.40
2022-08-04T02:22:39.811Z,12.43
2022-08-04T02:25:10.108Z,12.75
2022-08-04T02:28:00.477Z,11.52
2022-08-04T02:30:32.473Z,12.40
2022-08-04T02:33:04.943Z,12.35
2022-08-04T02:35:36.857Z,12.02
2022-08-04T02:38:25.643Z,12.10
2022-08-04T02:40:56.561Z,12.57
2022-08-04T02:43:50.764Z,13.02
2022-08-04T02:46:18.668Z,12.55
2022-08-04T02:48:48.876Z,13.05
2022-08-04T02:51:24.312Z,11.90
2022-08-04T02:53:55.546Z,12.73
2022-08-04T02:56:24.693Z,12.70
2022-08-04T02:58:54.651Z,12.63
2022-08-04T03:01:23.328Z,12.50
2022-08-04T03:04:00.185Z,12.18
2022-08-04T03:07:04.295Z,12.38
2022-08-04T03:10:07.305Z,12.27
2022-08-04T03:13:13.114Z,12.48
2022-08-04T03:16:09.115Z,12.45
2022-08-04T03:19:09.348Z,11.85
2022-08-04T03:22:02.802Z,12.85
2022-08-04T03:24:59.550Z,12.05
2022-08-04T03:27:46.881Z,12.30
2022-08-04T03:30:15.286Z,12.63
2022-08-04T03:33:15.957Z,12.50
2022-08-04T03:36:16.017Z,12.15
2022-08-04T03:39:18.190Z,11.82
2022-08-04T03:42:19.229Z,12.38
2022-08-04T03:45:23.019Z,13.00
2022-08-04T03:48:23.713Z,12.02
2022-08-04T03:51:34.989Z,12.32
2022-08-04T03:54:29.247Z,14.35
2022-08-04T03:57:14.560Z,11.85
2022-08-04T03:59:51.678Z,11.55
2022-08-04T04:02:45.447Z,11.68
2022-08-04T04:05:30.615Z,12.32
2022-08-04T04:08:33.950Z,11.48
2022-08-04T04:11:24.522Z,12.43
2022-08-04T04:14:10.418Z,12.43
2022-08-04T04:16:51.054Z,12.60
2022-08-04T04:19:28.241Z,11.45
2022-08-04T04:22:10.954Z,12.57
2022-08-04T04:24:52.800Z,12.52
2022-08-04T04:27:35.444Z,11.98
2022-08-04T04:30:07.637Z,12.45
2022-08-04T04:35:34.626Z,12.02
2022-08-04T04:38:30.848Z,12.40
2022-08-04T04:41:06.880Z,12.07
2022-08-04T04:43:52.613Z,12.23
2022-08-04T04:46:28.297Z,12.32
2022-08-04T04:49:04.585Z,11.82
2022-08-04T04:51:37.618Z,12.55
2022-08-04T04:54:09.719Z,12.48
2022-08-04T04:56:41.599Z,11.80
2022-08-04T04:59:15.592Z,12.40
2022-08-04T05:02:07.972Z,12.52
2022-08-04T05:05:04.892Z,12.15
2022-08-04T05:07:53.269Z,12.23
2022-08-04T05:10:33.377Z,12.07
2022-08-04T05:14:36.356Z,13.13
2022-08-04T05:16:04.849Z,12.13
2022-08-04T05:18:34.670Z,13.82
2022-08-04T05:21:15.238Z,12.20
2022-08-04T05:23:45.742Z,12.75
2022-08-04T05:26:15.036Z,12.02
2022-08-04T05:28:44.780Z,12.52
2022-08-04T05:31:17.784Z,12.52
2022-08-04T05:33:49.276Z,12.32
2022-08-04T05:36:32.690Z,12.10
2022-08-04T05:39:07.436Z,12.40
2022-08-04T05:41:44.849Z,13.35
2022-08-04T05:44:14.794Z,12.63
2022-08-04T05:46:45.563Z,11.90
2022-08-04T05:49:23.413Z,13.35
2022-08-04T05:51:52.450Z,13.68
2022-08-04T05:54:21.871Z,13.07
2022-08-04T05:56:50.892Z,13.70
2022-08-04T05:59:20.107Z,13.35
2022-08-04T06:01:56.329Z,13.10
2022-08-04T06:04:27.750Z,13.02
2022-08-04T06:06:55.847Z,13.77
2022-08-04T06:09:23.630Z,13.00
2022-08-04T06:12:00.753Z,13.05
2022-08-04T06:14:34.966Z,12.68
2022-08-04T06:17:27.133Z,13.45
2022-08-04T06:20:00.445Z,12.93
2022-08-04T06:22:34.430Z,13.63
2022-08-04T06:25:02.828Z,13.07
2022-08-04T06:27:31.527Z,13.90
2022-08-04T06:30:00.327Z,14.05
2022-08-04T06:32:41.315Z,13.35
2022-08-04T06:35:10.434Z,13.30
2022-08-04T06:37:42.978Z,14.20
2022-08-04T06:40:32.060Z,13.82
2022-08-04T06:43:01.538Z,14.65
2022-08-04T06:45:29.751Z,13.50
2022-08-04T06:47:59.605Z,13.60
2022-08-04T06:51:31.339Z,14.52
2022-08-04T06:53:16.631Z,14.45
2022-08-04T06:55:45.402Z,14.00
2022-08-04T06:58:13.635Z,14.10
2022-08-04T07:00:42.852Z,13.98
2022-08-04T07:03:12.050Z,14.02
2022-08-04T07:05:40.651Z,14.55
2022-08-04T07:08:08.655Z,14.50
2022-08-04T07:10:36.891Z,13.45
2022-08-04T07:13:04.677Z,14.18
2022-08-04T07:15:32.846Z,13.27
2022-08-04T07:18:03.631Z,13.85
2022-08-04T07:20:34.722Z,14.07
2022-08-04T07:23:05.169Z,13.93
2022-08-04T07:26:01.191Z,14.70
2022-08-04T07:28:21.419Z,14.23
2022-08-04T07:30:49.887Z,14.05
2022-08-04T07:33:18.354Z,14.57
2022-08-04T07:36:04.518Z,14.20
2022-08-04T07:38:48.395Z,14.30
2022-08-04T07:41:37.588Z,14.63
2022-08-04T07:44:06.326Z,15.65
2022-08-04T07:46:34.208Z,14.32
2022-08-04T07:49:02.266Z,14.02
2022-08-04T07:51:32.204Z,15.13
2022-08-04T07:54:03.352Z,14.80
2022-08-04T07:56:31.466Z,14.25
2022-08-04T07:58:59.930Z,14.70
2022-08-04T08:01:28.014Z,15.02
2022-08-04T08:03:57.778Z,15.65
2022-08-04T08:06:33.231Z,15.50
2022-08-04T08:09:13.510Z,14.35
2022-08-04T08:12:36.519Z,14.60
2022-08-04T08:14:32.249Z,14.43
2022-08-04T08:17:01.593Z,15.75
2022-08-04T08:19:29.630Z,15.00
2022-08-04T08:21:58.907Z,14.90
2022-08-04T08:24:29.653Z,14.63
2022-08-04T08:26:57.962Z,15.68
2022-08-04T08:29:25.963Z,15.32
2022-08-04T08:32:05.414Z,15.15
2022-08-04T08:34:35.431Z,15.27
2022-08-04T08:37:06.422Z,15.20
2022-08-04T08:39:39.276Z,14.35
2022-08-04T08:42:47.970Z,14.48
2022-08-04T08:45:36.691Z,14.73
2022-08-04T08:48:16.882Z,15.35
2022-08-04T08:51:08.928Z,15.38
2022-08-04T08:54:06.959Z,15.43
2022-08-04T08:56:40.863Z,14.57
2022-08-04T08:59:30.567Z,15.25
2022-08-04T09:02:08.280Z,15.00
2022-08-04T09:05:11.338Z,14.88
2022-08-04T09:07:51.102Z,15.43
2022-08-04T09:10:20.903Z,14.85
2022-08-04T09:12:55.389Z,15.13
2022-08-04T09:15:29.884Z,15.20
2022-08-04T09:18:01.535Z,14.20
2022-08-04T09:23:08.068Z,15.18
2022-08-04T09:25:40.718Z,14.90
2022-08-04T09:28:37.222Z,14.65
2022-08-04T09:31:10.860Z,14.63
2022-08-04T09:33:46.197Z,14.65
2022-08-04T09:36:26.117Z,14.18
2022-08-04T09:39:05.664Z,15.10
2022-08-04T09:41:49.669Z,14.68
2022-08-04T09:44:48.912Z,14.73
2022-08-04T09:47:21.550Z,14.68
2022-08-04T09:49:57.335Z,15.82
2022-08-04T09:52:29.669Z,14.95
2022-08-04T09:55:05.949Z,14.50
2022-08-04T09:57:46.306Z,14.98
2022-08-04T10:00:17.803Z,15.05
2022-08-04T10:05:16.311Z,14.07
2022-08-04T10:07:59.609Z,14.20
2022-08-04T10:10:53.368Z,14.35
2022-08-04T10:13:27.259Z,14.48
2022-08-04T10:16:17.131Z,14.75
2022-08-04T10:18:51.963Z,14.82
2022-08-04T10:21:25.273Z,15.25
2022-08-04T10:24:20.138Z,14.40
2022-08-04T10:26:56.896Z,15.20
2022-08-04T10:29:29.222Z,14.63
2022-08-04T10:32:02.159Z,14.73
2022-08-04T10:34:37.982Z,13.60
2022-08-04T10:37:11.874Z,14.63
2022-08-04T10:40:07.325Z,14.38
2022-08-04T10:42:37.492Z,14.23
2022-08-04T10:45:11.633Z,14.65
2022-08-04T10:48:01.478Z,14.18
2022-08-04T10:50:30.590Z,14.23
2022-08-04T10:53:05.328Z,15.27
2022-08-04T10:56:06.194Z,14.55
2022-08-04T10:58:47.854Z,13.82
2022-08-04T11:01:50.674Z,14.52
2022-08-04T11:04:16.153Z,15.35
2022-08-04T11:06:56.576Z,15.23
2022-08-04T11:09:24.505Z,14.80
2022-08-04T11:12:00.801Z,15.05
2022-08-04T11:14:35.189Z,14.40
2022-08-04T11:17:07.721Z,14.30
2022-08-04T11:19:45.331Z,15.23
2022-08-04T11:22:23.374Z,15.18
2022-08-04T11:24:55.052Z,14.82
2022-08-04T11:27:27.359Z,15.10
2022-08-04T11:30:04.850Z,14.98
2022-08-04T11:32:37.217Z,14.25
2022-08-04T11:35:08.706Z,14.93
2022-08-04T11:37:44.329Z,14.80
2022-08-04T11:40:15.204Z,14.75
2022-08-04T11:42:53.222Z,14.82
2022-08-04T11:45:26.239Z,14.55
2022-08-04T11:48:00.656Z,14.93
2022-08-04T11:50:34.348Z,14.57
2022-08-04T11:53:02.976Z,14.75
2022-08-04T11:55:31.714Z,14.88
2022-08-04T11:57:59.618Z,14.82
2022-08-04T12:00:29.662Z,15.63
2022-08-04T12:03:10.181Z,14.73
2022-08-04T12:05:48.465Z,14.73
2022-08-04T12:08:27.867Z,15.05
2022-08-04T12:11:07.151Z,14.95
2022-08-04T12:13:42.066Z,14.13
2022-08-04T12:16:17.244Z,13.98
2022-08-04T12:18:52.538Z,15.07
2022-08-04T12:21:29.779Z,15.32
2022-08-04T12:24:00.606Z,15.02
2022-08-04T12:26:32.616Z,15.55
2022-08-04T12:29:10.830Z,14.15
2022-08-04T12:31:45.243Z,14.75
2022-08-04T12:34:16.248Z,15.27
2022-08-04T12:36:53.777Z,15.25
2022-08-04T12:39:23.185Z,14.52
2022-08-04T12:41:59.969Z,14.30
2022-08-04T12:44:36.513Z,14.50
2022-08-04T12:47:26.227Z,14.70
2022-08-04T12:50:01.999Z,14.68
2022-08-04T12:53:00.359Z,14.57
2022-08-04T12:55:26.222Z,14.70
2022-08-04T12:57:54.717Z,14.68
2022-08-04T13:00:34.098Z,13.88
2022-08-04T13:03:10.252Z,14.15
2022-08-04T13:05:41.399Z,14.82
2022-08-04T13:08:11.907Z,13.98
2022-08-04T13:10:41.456Z,14.23
2022-08-04T13:13:16.571Z,14.23
2022-08-04T13:15:47.447Z,14.45
2022-08-04T13:18:29.681Z,13.75
2022-08-04T13:21:21.355Z,14.85
2022-08-04T13:24:19.042Z,14.23
2022-08-04T13:26:56.171Z,14.40
2022-08-04T13:29:59.457Z,14.45
2022-08-04T13:32:17.710Z,14.57
2022-08-04T13:34:49.189Z,14.07
2022-08-04T13:37:22.638Z,14.02
2022-08-04T13:39:55.177Z,16.02
2022-08-04T13:42:23.765Z,14.77
2022-08-04T13:44:55.365Z,14.55
2022-08-04T13:47:28.143Z,14.98
2022-08-04T13:50:15.666Z,15.23
2022-08-04T13:52:44.375Z,14.45
2022-08-04T13:55:22.047Z,14.70
2022-08-04T13:57:52.538Z,14.15
2022-08-04T14:00:29.755Z,13.80
2022-08-04T14:03:03.322Z,14.63
2022-08-04T14:05:36.912Z,14.48
2022-08-04T14:08:24.109Z,13.40
2022-08-04T14:10:57.745Z,14.80
2022-08-04T14:13:41.990Z,14.13
2022-08-04T14:16:17.400Z,14.18
2022-08-04T14:18:45.514Z,14.13
2022-08-04T14:21:15.371Z,14.45
2022-08-04T14:23:50.727Z,14.05
2022-08-04T14:26:32.780Z,14.27
2022-08-04T14:29:27.797Z,14.30
2022-08-04T14:32:12.418Z,14.13
2022-08-04T14:34:44.740Z,13.45
2022-08-04T14:37:19.248Z,14.10
2022-08-04T14:40:18.681Z,14.38
2022-08-04T14:42:55.857Z,14.45
2022-08-04T14:45:31.990Z,14.68
2022-08-04T14:48:00.751Z,14.65
2022-08-04T14:50:47.728Z,14.10
2022-08-04T14:53:17.817Z,14.25
2022-08-04T14:55:47.395Z,14.25
2022-08-04T14:58:34.398Z,14.35
2022-08-04T15:01:10.113Z,14.40
2022-08-04T15:03:50.630Z,14.93
2022-08-04T15:06:23.547Z,14.50
2022-08-04T15:08:52.104Z,14.07
2022-08-04T15:11:23.260Z,14.73
2022-08-04T15:13:53.274Z,14.25
2022-08-04T15:16:21.585Z,14.77
2022-08-04T15:18:49.910Z,14.48
2022-08-04T15:21:18.360Z,13.95
2022-08-04T15:23:46.166Z,14.75
2022-08-04T15:26:17.063Z,14.30
2022-08-04T15:28:48.952Z,14.00
2022-08-04T15:32:07.375Z,13.98
2022-08-04T15:34:07.911Z,14.40
2022-08-04T15:36:56.230Z,13.77
2022-08-04T15:39:33.129Z,14.30
2022-08-04T15:42:16.118Z,14.73
2022-08-04T15:45:11.517Z,14.15
2022-08-04T15:47:40.904Z,14.48
2022-08-04T15:50:10.321Z,13.73
2022-08-04T15:53:12.476Z,14.27
2022-08-04T15:55:42.864Z,14.65
2022-08-04T15:58:11.962Z,15.18
2022-08-04T16:01:16.019Z,15.05
2022-08-04T16:04:17.706Z,14.75
2022-08-04T16:06:46.855Z,14.50
2022-08-04T16:09:25.807Z,14.82
2022-08-04T16:12:54.527Z,14.32
2022-08-04T16:15:38.441Z,14.75
2022-08-04T16:18:13.782Z,14.45
2022-08-04T16:20:55.677Z,15.35
2022-08-04T16:23:56.982Z,14.38
2022-08-04T16:26:55.854Z,14.63
2022-08-04T16:29:35.075Z,13.80
2022-08-04T16:32:14.726Z,14.48
2022-08-04T16:34:48.902Z,14.50
2022-08-04T16:37:19.651Z,14.32
2022-08-04T16:39:50.395Z,13.85
2022-08-04T16:42:31.101Z,14.55
2022-08-04T16:45:04.208Z,14.68
2022-08-04T16:48:04.183Z,13.50
2022-08-04T16:50:32.267Z,14.63
2022-08-04T16:53:00.814Z,13.02
2022-08-04T16:55:30.062Z,14.05
2022-08-04T16:58:00.056Z,14.27
2022-08-04T17:00:32.505Z,14.00
2022-08-04T17:03:03.526Z,13.35
2022-08-04T17:05:38.420Z,13.65
2022-08-04T17:08:28.749Z,13.52
2022-08-04T17:10:56.256Z,13.15
2022-08-04T17:14:03.385Z,14.07
2022-08-04T17:16:18.479Z,14.77
2022-08-04T17:18:48.132Z,14.40
2022-08-04T17:21:27.072Z,14.30
2022-08-04T17:24:18.217Z,13.73
2022-08-04T17:26:54.103Z,14.13
2022-08-04T17:32:17.162Z,13.40
2022-08-04T17:34:48.928Z,14.38
2022-08-04T17:37:38.477Z,13.43
2022-08-04T17:40:10.767Z,14.23
2022-08-04T17:42:41.842Z,13.80
2022-08-04T17:45:50.172Z,14.20
2022-08-04T17:47:59.162Z,13.50
2022-08-04T17:50:27.741Z,14.07
2022-08-04T17:55:50.979Z,13.48
2022-08-04T17:58:23.096Z,12.88
2022-08-04T18:03:53.505Z,13.13
2022-08-04T18:06:25.385Z,14.32
2022-08-04T18:08:57.796Z,13.77
2022-08-04T18:11:29.792Z,14.27
2022-08-04T18:14:11.327Z,13.80
2022-08-04T18:16:45.768Z,14.07
2022-08-04T18:19:31.305Z,13.63
2022-08-04T18:22:01.011Z,14.15
2022-08-04T18:24:35.095Z,14.60
2022-08-04T18:27:18.453Z,13.48
2022-08-04T18:29:50.212Z,15.27
2022-08-04T18:35:24.140Z,14.82
2022-08-04T18:38:22.432Z,14.65
2022-08-04T18:40:54.440Z,15.52
2022-08-04T18:43:28.614Z,14.43
2022-08-04T18:48:57.811Z,14.30
2022-08-04T18:51:39.749Z,14.68
2022-08-04T18:54:17.014Z,14.63
2022-08-04T18:56:55.883Z,14.85
2022-08-04T18:59:32.746Z,16.73
2022-08-04T19:02:13.455Z,15.05
2022-08-04T19:04:49.580Z,14.35
2022-08-04T19:07:23.350Z,15.23
2022-08-04T19:09:59.771Z,15.35
2022-08-04T19:12:28.875Z,14.82
2022-08-04T19:15:08.490Z,15.40
2022-08-04T19:17:59.949Z,15.10
2022-08-04T19:20:30.786Z,14.80
2022-08-04T19:24:28.951Z,14.70
2022-08-04T19:25:58.686Z,14.45
2022-08-04T19:28:34.157Z,14.50
2022-08-04T19:31:03.884Z,14.25
2022-08-04T19:33:58.128Z,14.52
2022-08-04T19:36:28.638Z,15.48
2022-08-04T19:38:58.289Z,14.85
2022-08-04T19:41:26.875Z,14.77
2022-08-04T19:43:55.373Z,15.02
2022-08-04T19:46:24.710Z,14.95
2022-08-04T19:48:58.910Z,14.45
2022-08-04T19:51:28.980Z,14.73
2022-08-04T19:54:04.054Z,14.13
2022-08-04T19:56:40.510Z,14.35
2022-08-04T19:59:10.374Z,15.63
2022-08-04T20:02:22.765Z,15.93
2022-08-04T20:04:54.865Z,14.77
2022-08-04T20:07:22.652Z,14.45
2022-08-04T20:09:53.710Z,15.48
2022-08-04T20:12:21.681Z,14.25
2022-08-04T20:14:49.863Z,14.77
2022-08-04T20:17:19.500Z,15.15
2022-08-04T20:20:10.150Z,14.40
2022-08-04T20:25:37.409Z,15.52
2022-08-04T20:28:07.094Z,15.05
2022-08-04T20:30:34.809Z,14.48
2022-08-04T20:33:06.766Z,14.57
2022-08-04T20:36:00.686Z,16.75
2022-08-04T20:38:33.558Z,15.50
2022-08-04T20:41:02.100Z,15.45
2022-08-04T20:43:31.115Z,14.02
2022-08-04T20:45:59.864Z,14.02
2022-08-04T20:48:29.068Z,15.77
2022-08-04T20:51:02.774Z,14.43
2022-08-04T20:53:46.819Z,14.85
2022-08-04T20:56:19.049Z,14.50
2022-08-04T20:58:58.257Z,15.15
2022-08-04T21:01:29.702Z,16.20
2022-08-04T21:07:24.885Z,16.02
2022-08-04T21:09:53.411Z,15.32
2022-08-04T21:12:27.578Z,15.50
2022-08-04T21:17:58.320Z,15.60
2022-08-04T21:20:32.385Z,15.65
2022-08-04T21:23:07.438Z,15.98
2022-08-04T21:25:42.957Z,14.35
2022-08-04T21:35:44.038Z,14.93
2022-08-04T21:38:18.251Z,15.20
2022-08-04T21:40:54.546Z,14.10
2022-08-04T21:43:23.614Z,14.35
2022-08-04T21:46:15.232Z,14.65
2022-08-04T21:48:49.331Z,14.85
2022-08-04T21:51:59.954Z,15.80
2022-08-04T21:54:32.197Z,14.30
2022-08-04T21:57:03.599Z,14.60
2022-08-04T21:59:31.559Z,15.48
2022-08-04T22:02:01.788Z,14.45
2022-08-04T22:04:30.049Z,15.20
2022-08-04T22:06:57.914Z,14.52
2022-08-04T22:09:38.949Z,15.13
2022-08-04T22:12:10.230Z,14.75
2022-08-04T22:14:41.093Z,14.55
2022-08-04T22:17:13.412Z,15.05
2022-08-04T22:19:55.499Z,15.05
2022-08-04T22:22:27.091Z,15.70
2022-08-04T22:25:01.776Z,15.35
2022-08-04T22:27:55.049Z,14.50
2022-08-04T22:30:23.877Z,14.60
2022-08-04T22:32:51.949Z,15.40
2022-08-04T22:35:35.595Z,14.75
2022-08-04T22:38:20.645Z,14.48
2022-08-04T22:41:01.790Z,14.55
2022-08-04T22:43:32.311Z,14.75
2022-08-04T22:46:03.564Z,14.32
2022-08-04T22:48:32.429Z,14.93
2022-08-04T22:51:00.504Z,14.40
2022-08-04T22:53:28.235Z,14.75
2022-08-04T22:56:06.672Z,14.55
2022-08-04T22:58:40.190Z,15.82
2022-08-04T23:01:08.699Z,14.10
2022-08-04T23:03:38.480Z,14.70
2022-08-04T23:06:10.493Z,14.73
2022-08-04T23:08:43.345Z,15.38
2022-08-04T23:11:14.879Z,15.35
2022-08-04T23:13:44.264Z,16.88
2022-08-04T23:16:12.390Z,14.95
2022-08-04T23:18:42.155Z,16.05
2022-08-04T23:21:11.687Z,14.90
2022-08-04T23:23:47.762Z,14.90
2022-08-04T23:26:29.099Z,14.70
2022-08-04T23:28:58.577Z,15.18
2022-08-04T23:31:41.527Z,14.70
2022-08-04T23:34:14.540Z,15.65
2022-08-04T23:39:15.576Z,14.98
2022-08-04T23:41:54.338Z,14.55
2022-08-04T23:44:28.098Z,14.93
2022-08-04T23:47:00.640Z,14.55
2022-08-04T23:49:44.325Z,14.45
2022-08-04T23:52:29.434Z,14.77
2022-08-04T23:54:59.019Z,15.02
2022-08-04T23:57:30.958Z,14.55
